Time;durP1;ratioP1;P1;durP2;ratioP2;P2;SDS_P1;SDS_P2;PMS_P1;PMS_P2;Temp;Humidity;BMP_temperature;BMP_pressure;BME280_temperature;BME280_humidity;BME280_pressure;Samples;Min_cycle;Max_cycle;Signal;HPM_P1;HPM_P2
2022/10/03 00:00:08;;;;;;;8.98;2.38;;;;;;;8.63;97.74;102596.75;4956645;28;20119;-77
2022/10/03 00:02:46;;;;;;;7.38;2.03;;;;;;;8.65;97.63;102600.53;4954684;28;20390;-77
2022/10/03 00:05:35;;;;;;;4.82;1.92;;;;;;;8.66;97.88;102611.91;4956209;28;20047;-77
2022/10/03 00:08:21;;;;;;;5.57;2.03;;;;;;;8.65;98.22;102610.38;4955127;28;20571;-77
2022/10/03 00:11:03;;;;;;;5.32;2.25;;;;;;;8.66;98.31;102617.22;4954318;28;20047;-77
2022/10/03 00:13:52;;;;;;;14.35;2.30;;;;;;;8.65;98.81;102616.47;4956442;28;20433;-77
2022/10/03 00:16:18;;;;;;;8.27;2.50;;;;;;;8.63;99.46;102618.72;4955994;28;20493;-77
2022/10/03 00:19:05;;;;;;;8.52;2.47;;;;;;;8.66;99.13;102627.84;4955220;28;20131;-77
2022/10/03 00:21:55;;;;;;;6.03;2.00;;;;;;;8.63;99.17;102623.28;4956428;28;20075;-77
2022/10/03 00:24:32;;;;;;;6.55;2.00;;;;;;;8.62;99.18;102625.19;4956107;28;20043;-77
2022/10/03 00:27:16;;;;;;;7.53;2.28;;;;;;;8.61;99.46;102631.63;4956402;28;20054;-77
2022/10/03 00:30:00;;;;;;;6.90;2.20;;;;;;;8.62;99.19;102627.84;4956442;28;20135;-77
2022/10/03 00:33:16;;;;;;;7.20;2.38;;;;;;;8.58;98.59;102632.38;4954732;28;20114;-77
2022/10/03 00:35:56;;;;;;;7.35;2.38;;;;;;;8.58;99.15;102631.63;4955634;28;20139;-77
2022/10/03 00:39:01;;;;;;;7.85;2.33;;;;;;;8.58;99.10;102639.59;4954965;28;20060;-77
2022/10/03 00:41:58;;;;;;;8.50;2.25;;;;;;;8.56;99.11;102639.22;4954414;28;20051;-77
2022/10/03 00:44:35;;;;;;;8.30;2.35;;;;;;;8.54;98.98;102644.13;4955948;28;20571;-77
2022/10/03 00:47:31;;;;;;;7.38;1.65;;;;;;;8.53;98.86;102639.97;4955887;28;20079;-77
2022/10/03 00:50:02;;;;;;;5.65;2.15;;;;;;;8.48;98.43;102635.78;4955764;28;20047;-77
2022/10/03 00:52:56;;;;;;;8.83;2.93;;;;;;;8.45;98.24;102641.09;4955049;28;20047;-77
2022/10/03 00:55:33;;;;;;;9.18;2.20;;;;;;;8.39;97.75;102658.56;4956090;28;20351;-77
2022/10/03 00:58:22;;;;;;;5.35;2.03;;;;;;;8.31;97.81;102653.19;4954473;28;20537;-77
2022/10/03 01:00:50;;;;;;;5.72;1.95;;;;;;;8.32;97.71;102659.28;4955961;28;20058;-77
2022/10/03 01:03:22;;;;;;;6.47;2.13;;;;;;;8.30;97.34;102658.88;4954131;28;20079;-77
2022/10/03 01:05:48;;;;;;;;;;;;;;;8.28;97.16;102656.59;4956138;28;20044;-77
2022/10/03 01:08:39;;;;;;;5.38;1.45;;;;;;;8.26;96.88;102661.53;4955072;28;19926;-79
2022/10/03 01:11:21;;;;;;;7.30;2.40;;;;;;;8.22;96.75;102662.66;4955237;28;20048;-77
2022/10/03 01:14:15;;;;;;;2.63;1.85;;;;;;;8.19;96.35;102664.16;4955597;28;20058;-77
2022/10/03 01:16:54;;;;;;;5.28;1.75;;;;;;;8.19;96.58;102674.00;4955663;28;20054;-77
2022/10/03 01:19:32;;;;;;;6.57;1.92;;;;;;;8.16;96.18;102672.88;4955498;28;20052;-77
2022/10/03 01:22:38;;;;;;;8.50;1.90;;;;;;;8.13;96.31;102680.81;4954696;28;20416;-77
2022/10/03 01:25:34;;;;;;;2.50;1.33;;;;;;;8.07;95.66;102675.13;4955125;28;20505;-78
2022/10/03 01:31:15;;;;;;;5.10;1.48;;;;;;;8.00;96.24;102672.44;4955320;28;20131;-77
2022/10/03 01:33:55;;;;;;;8.43;1.60;;;;;;;7.99;96.15;102669.06;4955213;28;20107;-79
2022/10/03 01:36:28;;;;;;;6.68;1.73;;;;;;;7.95;96.12;102670.16;4954503;28;20524;-77
2022/10/03 01:39:10;;;;;;;7.30;1.92;;;;;;;7.89;95.56;102674.31;4954883;28;20151;-77
2022/10/03 01:42:00;;;;;;;2.92;1.60;;;;;;;7.82;95.76;102666.31;4955227;28;20157;-77
2022/10/03 01:44:57;;;;;;;4.72;1.67;;;;;;;7.83;96.01;102671.25;4953868;28;20080;-77
2022/10/03 01:47:36;;;;;;;8.38;2.17;;;;;;;7.83;95.90;102667.84;4955340;28;20135;-77
2022/10/03 01:50:13;;;;;;;5.95;1.77;;;;;;;7.83;95.90;102673.16;4954990;28;20050;-77
2022/10/03 01:53:21;;;;;;;4.88;1.73;;;;;;;7.81;95.75;102678.06;4954712;28;20051;-77
2022/10/03 01:55:58;;;;;;;4.20;1.50;;;;;;;7.79;95.66;102683.75;4914462;29;20135;-77
2022/10/03 01:58:40;;;;;;;7.00;1.60;;;;;;;7.76;95.72;102681.06;4914505;29;20144;-77
2022/10/03 02:01:24;;;;;;;3.00;1.58;;;;;;;7.72;95.71;102680.28;4913999;29;20548;-77
2022/10/03 02:04:03;;;;;;;3.30;1.50;;;;;;;7.68;95.48;102681.03;4914562;29;20521;-77
2022/10/03 02:07:03;;;;;;;6.05;1.50;;;;;;;7.66;95.62;102685.94;4913947;29;20061;-77
2022/10/03 02:09:32;;;;;;;1.73;1.60;;;;;;;7.66;95.94;102685.19;4914509;29;20123;-77
2022/10/03 02:12:29;;;;;;;3.88;1.52;;;;;;;7.65;95.54;102683.66;4914020;29;20052;-77
2022/10/03 02:15:04;;;;;;;2.00;1.58;;;;;;;7.60;96.10;102684.03;4914082;29;20532;-77
2022/10/03 02:17:52;;;;;;;5.43;1.40;;;;;;;7.60;96.00;102686.66;4913394;29;20101;-77
2022/10/03 02:20:29;;;;;;;2.33;1.35;;;;;;;7.61;96.23;102688.19;4913712;29;20056;-77
2022/10/03 02:22:57;;;;;;;3.03;1.20;;;;;;;7.61;96.17;102691.59;4913881;29;20105;-77
2022/10/03 02:25:39;;;;;;;5.35;1.63;;;;;;;7.61;96.12;102688.19;4914065;29;20087;-77
2022/10/03 02:28:14;;;;;;;5.65;1.63;;;;;;;7.58;96.32;102688.97;4913710;29;20532;-77
2022/10/03 02:31:05;;;;;;;3.13;1.55;;;;;;;7.57;96.33;102690.84;4914209;29;20487;-77
2022/10/03 02:34:09;;;;;;;3.03;1.23;;;;;;;7.56;96.39;102686.69;4944821;28;20056;-77
2022/10/03 02:36:47;;;;;;;6.07;1.58;;;;;;;7.54;96.42;102693.47;4954478;28;20058;-77
2022/10/03 02:39:19;;;;;;;8.63;1.60;;;;;;;7.51;96.02;102689.69;4954300;28;20051;-77
2022/10/03 02:42:37;;;;;;;3.95;1.75;;;;;;;7.50;95.84;102682.09;4954456;28;20052;-77
2022/10/03 02:45:35;;;;;;;4.07;1.80;;;;;;;7.47;96.02;102680.94;4954220;28;20054;-77
2022/10/03 02:48:23;;;;;;;3.92;1.70;;;;;;;7.46;96.28;102691.91;4954096;28;20044;-77
2022/10/03 02:51:29;;;;;;;8.35;1.63;;;;;;;7.44;96.29;102680.91;4953339;28;20050;-78
2022/10/03 02:54:32;;;;;;;5.65;1.67;;;;;;;7.40;96.30;102688.84;4954105;28;20540;-78
2022/10/03 02:57:21;;;;;;;3.22;1.30;;;;;;;7.32;96.01;102681.97;4953822;28;20054;-78
2022/10/03 03:00:05;;;;;;;2.38;1.27;;;;;;;7.34;96.62;102680.47;4954178;28;20067;-78
2022/10/03 03:03:04;;;;;;;4.38;1.50;;;;;;;7.35;96.48;102683.91;4954176;28;20048;-78
2022/10/03 03:06:07;;;;;;;8.68;1.83;;;;;;;7.33;96.49;102683.50;4953485;28;20123;-78
2022/10/03 03:09:01;;;;;;;2.15;1.50;;;;;;;7.31;96.50;102694.47;4954243;28;20058;-78
2022/10/03 03:12:05;;;;;;;1.50;1.40;;;;;;;7.30;96.54;102694.84;4953995;28;20039;-78
2022/10/03 03:14:59;;;;;;;4.03;1.55;;;;;;;7.28;96.37;102699.75;4954133;28;20084;-78
2022/10/03 03:17:59;;;;;;;2.17;1.27;;;;;;;7.26;96.79;102694.81;4954214;28;20040;-78
2022/10/03 03:20:40;;;;;;;11.98;1.27;;;;;;;7.22;96.47;102701.22;4954005;28;20119;-78
2022/10/03 03:23:21;;;;;;;2.83;1.35;;;;;;;7.21;96.96;102703.09;4953759;28;20040;-78
2022/10/03 03:26:00;;;;;;;4.13;1.73;;;;;;;7.21;96.90;102707.63;4954012;28;20079;-78
2022/10/03 03:28:31;;;;;;;1.73;1.25;;;;;;;7.19;97.07;102707.28;4954108;28;20058;-78
2022/10/03 03:31:10;;;;;;;2.03;1.53;;;;;;;7.17;96.84;102712.94;4957165;28;20508;-78
2022/10/03 03:33:52;;;;;;;4.63;1.92;;;;;;;7.14;96.58;102713.66;4956757;28;20842;-78
2022/10/03 03:36:50;;;;;;;2.80;1.30;;;;;;;7.13;96.86;102720.09;4957063;28;20051;-77
2022/10/03 03:39:54;;;;;;;8.32;1.40;;;;;;;7.12;96.61;102709.88;4956804;28;20485;-76
2022/10/03 03:42:36;;;;;;;3.50;1.52;;;;;;;7.09;96.64;102708.72;4956887;28;20142;-76
2022/10/03 03:45:35;;;;;;;2.60;1.25;;;;;;;7.06;96.62;102711.34;4955053;28;20117;-76
2022/10/03 03:48:38;;;;;;;3.60;1.10;;;;;;;7.02;96.43;102709.41;4956342;28;20043;-77
2022/10/03 03:51:21;;;;;;;8.77;1.10;;;;;;;7.00;96.47;102718.84;4956707;28;20148;-76
2022/10/03 03:54:25;;;;;;;3.78;1.17;;;;;;;6.95;96.77;102712.00;4957282;28;20604;-76
2022/10/03 03:57:05;;;;;;;2.38;1.10;;;;;;;6.96;96.85;102720.69;4957027;28;20048;-76
2022/10/03 04:00:06;;;;;;;3.75;1.02;;;;;;;6.93;96.87;102711.59;4956660;28;20050;-77
2022/10/03 04:02:41;;;;;;;5.50;1.38;;;;;;;6.87;96.64;102707.75;4953199;28;20056;-77
2022/10/03 04:05:32;;;;;;;2.28;1.10;;;;;;;6.85;96.51;102712.66;4956739;28;20058;-77
2022/10/03 04:08:11;;;;;;;3.22;1.20;;;;;;;6.84;96.60;102713.03;4956621;28;20524;-77
2022/10/03 04:10:52;;;;;;;0.98;0.77;;;;;;;6.82;96.69;102705.44;4956635;28;20402;-76
2022/10/03 04:13:31;;;;;;;1.35;1.23;;;;;;;6.81;96.56;102708.47;4956809;28;20130;-76
2022/10/03 04:19:41;;;;;;;2.25;1.00;;;;;;;6.78;96.31;102706.56;4956095;28;20055;-76
2022/10/03 04:22:18;;;;;;;1.65;1.10;;;;;;;6.77;96.73;102702.41;4956176;28;20127;-76
2022/10/03 04:25:09;;;;;;;3.15;1.20;;;;;;;6.73;96.68;102718.25;4956406;28;20499;-77
2022/10/03 04:27:44;;;;;;;2.67;0.90;;;;;;;6.68;96.63;102715.94;4956509;28;20417;-76
2022/10/03 04:30:17;;;;;;;1.27;1.10;;;;;;;6.65;96.84;102716.66;4955561;28;20047;-76
2022/10/03 04:33:02;;;;;;;1.63;1.00;;;;;;;6.61;96.60;102727.22;4956471;28;20504;-76
2022/10/03 04:35:54;;;;;;;2.80;1.00;;;;;;;6.58;96.42;102727.16;4956512;28;20048;-76
2022/10/03 04:39:18;;;;;;;1.17;1.08;;;;;;;6.57;96.53;102729.06;4956215;28;20130;-77
2022/10/03 04:42:12;;;;;;;1.30;0.90;;;;;;;6.58;96.41;102735.13;4895679;29;20063;-76
2022/10/03 04:45:13;;;;;;;1.10;1.08;;;;;;;6.57;96.48;102737.00;4896504;29;20479;-77
2022/10/03 04:47:47;;;;;;;0.73;0.70;;;;;;;6.53;96.06;102738.06;4896465;29;20079;-77
2022/10/03 04:50:18;;;;;;;2.47;1.15;;;;;;;6.44;96.07;102745.53;4896492;29;20053;-76
2022/10/03 04:53:07;;;;;;;3.93;1.07;;;;;;;6.45;96.47;102734.59;4896459;29;20053;-77
2022/10/03 04:55:46;;;;;;;2.50;0.90;;;;;;;6.42;96.57;102735.31;4896823;29;20284;-76
2022/10/03 04:58:54;;;;;;;1.75;0.85;;;;;;;6.43;96.27;102730.78;4896051;29;20059;-76
2022/10/03 05:01:28;;;;;;;2.38;1.02;;;;;;;6.43;96.29;102741.38;4896066;29;20590;-76
2022/10/03 05:04:24;;;;;;;1.38;1.13;;;;;;;6.42;96.43;102737.19;4896304;29;20049;-76
2022/10/03 05:07:28;;;;;;;1.10;1.00;;;;;;;6.40;96.46;102734.91;4896474;29;20064;-77
2022/10/03 05:10:21;;;;;;;1.20;1.02;;;;;;;6.37;96.16;102737.56;4896338;29;20053;-77
2022/10/03 05:13:18;;;;;;;2.25;1.30;;;;;;;6.33;96.42;102738.28;4931107;28;20070;-77
2022/10/03 05:16:10;;;;;;;1.83;1.10;;;;;;;6.33;96.40;102740.91;4955420;28;20119;-77
2022/10/03 05:18:46;;;;;;;2.55;1.23;;;;;;;6.32;96.55;102738.63;4955988;28;20416;-77
2022/10/03 05:21:19;;;;;;;3.55;1.30;;;;;;;6.29;96.10;102739.34;4955508;28;20078;-77
2022/10/03 05:24:03;;;;;;;1.60;1.30;;;;;;;6.28;96.53;102741.22;4955558;28;20593;-77
2022/10/03 05:26:38;;;;;;;2.22;1.08;;;;;;;6.26;96.51;102746.13;4955821;28;20040;-77
2022/10/03 05:29:38;;;;;;;1.52;1.23;;;;;;;6.18;96.62;102746.41;4954747;28;20127;-77
2022/10/03 05:32:22;;;;;;;1.38;0.82;;;;;;;6.19;96.68;102746.03;4955489;28;20046;-77
2022/10/03 05:35:05;;;;;;;2.70;1.15;;;;;;;6.19;96.82;102739.97;4955867;28;20881;-77
2022/10/03 05:38:19;;;;;;;1.35;1.27;;;;;;;6.21;96.64;102745.69;4954902;28;20126;-77
2022/10/03 05:41:10;;;;;;;2.65;1.00;;;;;;;6.21;96.88;102743.78;4914526;29;20065;-78
2022/10/03 05:43:57;;;;;;;2.53;1.20;;;;;;;6.20;96.79;102747.56;4914371;29;20437;-77
2022/10/03 05:46:56;;;;;;;1.45;1.10;;;;;;;6.20;96.81;102755.50;4914758;29;20518;-77
2022/10/03 05:49:41;;;;;;;7.25;1.52;;;;;;;6.20;96.99;102752.84;4914923;29;20053;-77
2022/10/03 05:52:30;;;;;;;1.63;1.30;;;;;;;6.22;97.07;102760.41;4913322;29;20057;-77
2022/10/03 05:55:17;;;;;;;1.52;1.20;;;;;;;6.22;97.27;102757.78;4914621;29;20096;-77
2022/10/03 05:58:24;;;;;;;3.92;1.30;;;;;;;6.22;97.21;102763.81;4914124;29;20061;-77
2022/10/03 06:01:04;;;;;;;3.28;1.30;;;;;;;6.23;97.37;102757.41;4914746;29;20127;-77
2022/10/03 06:03:58;;;;;;;2.72;1.27;;;;;;;6.25;97.37;102763.09;4914960;29;20058;-77
2022/10/03 06:07:07;;;;;;;7.07;1.40;;;;;;;6.26;97.50;102769.16;4914634;29;20080;-77
2022/10/03 06:09:45;;;;;;;10.88;1.50;;;;;;;6.25;97.62;102770.28;4914710;29;20132;-78
2022/10/03 06:12:26;;;;;;;1.42;1.02;;;;;;;6.30;97.72;102775.25;4913856;29;20171;-77
2022/10/03 06:15:11;;;;;;;1.60;1.40;;;;;;;6.32;97.75;102775.66;4914520;29;20049;-77
2022/10/03 06:17:56;;;;;;;1.30;1.20;;;;;;;6.35;97.87;102767.78;4930495;28;20527;-77
2022/10/03 06:20:46;;;;;;;4.30;1.35;;;;;;;6.37;97.53;102771.94;4953694;28;20138;-77
2022/10/03 06:23:27;;;;;;;1.65;1.35;;;;;;;6.39;97.76;102773.09;4954675;28;20139;-77
2022/10/03 06:26:25;;;;;;;2.25;1.20;;;;;;;6.45;97.92;102781.47;4954798;28;20556;-77
2022/10/03 06:29:29;;;;;;;1.25;1.13;;;;;;;6.51;98.21;102780.78;4944670;28;20055;-77
2022/10/03 06:32:28;;;;;;;2.65;1.40;;;;;;;6.61;98.56;102779.38;4954393;28;20107;-76
2022/10/03 06:35:13;;;;;;;2.65;1.50;;;;;;;6.72;98.79;102782.91;4954440;28;20123;-78
2022/10/03 06:37:48;;;;;;;1.60;1.42;;;;;;;6.81;99.01;102786.00;4954737;28;20058;-77
2022/10/03 06:40:30;;;;;;;3.30;1.60;;;;;;;6.93;99.22;102788.38;4954263;28;20134;-77
2022/10/03 06:43:15;;;;;;;2.38;1.42;;;;;;;7.53;99.60;102782.06;4953982;28;20050;-77
2022/10/03 06:46:18;;;;;;;4.55;1.27;;;;;;;7.96;97.95;102781.19;4954733;28;20107;-77
2022/10/03 06:49:18;;;;;;;2.78;1.48;;;;;;;7.95;98.62;102786.88;4954843;28;20043;-77
2022/10/03 06:51:54;;;;;;;1.40;1.30;;;;;;;8.09;99.92;102784.25;4954704;28;20086;-78
2022/10/03 06:54:53;;;;;;;1.85;1.35;;;;;;;8.26;99.45;102785.47;4954666;28;20110;-78
2022/10/03 06:57:53;;;;;;;2.33;1.48;;;;;;;8.42;99.62;102785.16;4954078;28;20118;-78
2022/10/03 07:00:23;;;;;;;3.47;1.60;;;;;;;8.56;99.55;102791.28;4955340;28;20119;-77
2022/10/03 07:03:36;;;;;;;4.38;1.52;;;;;;;8.67;99.85;102786.00;4954992;28;20126;-77
2022/10/03 07:06:13;;;;;;;3.85;1.65;;;;;;;8.82;100.00;102794.75;4917096;29;20411;-77
2022/10/03 07:09:22;;;;;;;3.45;1.52;;;;;;;9.00;100.00;102795.53;4917831;29;20051;-78
2022/10/03 07:12:19;;;;;;;4.60;1.73;;;;;;;9.21;100.00;102794.78;4917436;29;20120;-77
2022/10/03 07:15:04;;;;;;;3.05;1.55;;;;;;;9.41;100.00;102798.56;4917562;29;20547;-77
2022/10/03 07:17:55;;;;;;;6.10;1.67;;;;;;;9.62;100.00;102797.78;4917322;29;20056;-76
2022/10/03 07:20:52;;;;;;;4.35;1.73;;;;;;;9.75;100.00;102796.25;4917405;29;20076;-77
2022/10/03 07:23:47;;;;;;;5.40;1.88;;;;;;;9.89;100.00;102800.78;4917377;29;20140;-77
2022/10/03 07:26:53;;;;;;;6.60;1.90;;;;;;;10.05;100.00;102809.06;4917101;29;20167;-76
2022/10/03 07:29:25;;;;;;;6.55;1.73;;;;;;;10.18;99.38;102809.41;4917276;29;20060;-76
2022/10/03 07:32:27;;;;;;;4.35;1.83;;;;;;;10.33;99.98;102810.91;4917286;29;20516;-81
2022/10/03 07:38:56;;;;;;;14.13;1.90;;;;;;;10.47;99.30;102813.50;4897844;29;20064;-83
2022/10/03 07:38:58;;;;;;;2.90;1.55;;;;;;;10.63;99.28;102811.13;4916833;29;20568;-78
2022/10/03 07:41:40;;;;;;;2.33;1.50;;;;;;;10.87;99.03;102804.13;4918372;28;20132;-78
2022/10/03 07:44:28;;;;;;;6.20;1.65;;;;;;;11.13;98.99;102807.38;4957664;28;20501;-79
2022/10/03 07:47:17;;;;;;;9.65;1.83;;;;;;;11.42;98.83;102811.31;4957497;28;20134;-79
2022/10/03 07:50:23;;;;;;;5.97;1.83;;;;;;;11.74;98.42;102810.25;4957814;28;20048;-78
2022/10/03 07:53:16;;;;;;;5.45;1.80;;;;;;;12.03;97.66;102812.22;4957796;28;20051;-79
2022/10/03 07:56:18;;;;;;;5.63;1.80;;;;;;;12.20;96.01;102821.19;4957826;28;20052;-78
2022/10/03 07:58:48;;;;;;;;;;;;;;;12.15;96.12;102826.97;4958018;28;20051;-78
2022/10/03 08:01:49;;;;;;;3.58;1.65;;;;;;;12.11;95.88;102818.25;4957093;28;20383;-79
2022/10/03 08:04:21;;;;;;;4.10;1.48;;;;;;;12.16;96.34;102828.47;4957587;28;20054;-78
2022/10/03 08:07:14;;;;;;;7.03;1.30;;;;;;;12.20;96.36;102823.84;4957300;28;20126;-80
2022/10/03 08:10:19;;;;;;;8.93;1.88;;;;;;;12.20;96.88;102831.88;4956715;28;21005;-78
2022/10/03 08:13:25;;;;;;;4.32;1.48;;;;;;;12.22;97.13;102837.56;4957088;28;20048;-81
2022/10/03 08:15:54;;;;;;;4.32;1.42;;;;;;;12.23;96.97;102839.06;4956087;28;20083;-79
2022/10/03 08:18:44;;;;;;;6.57;1.73;;;;;;;12.27;97.08;102834.47;4957190;28;20059;-79
2022/10/03 08:21:16;;;;;;;4.72;1.50;;;;;;;12.37;97.55;102837.41;4949409;28;20065;-80
2022/10/03 08:24:01;;;;;;;2.92;1.40;;;;;;;12.45;97.59;102839.56;4955550;28;20087;-81
2022/10/03 08:26:38;;;;;;;6.10;1.98;;;;;;;12.52;97.10;102836.03;4956875;28;20118;-79
2022/10/03 08:29:16;;;;;;;6.85;1.80;;;;;;;12.65;97.38;102847.72;4957188;28;20044;-79
2022/10/03 08:32:01;;;;;;;5.18;1.80;;;;;;;12.74;97.48;102847.97;4957091;28;20052;-80
2022/10/03 08:34:33;;;;;;;4.63;1.60;;;;;;;12.85;96.96;102850.47;4957217;28;20434;-80
2022/10/03 08:37:24;;;;;;;5.57;1.40;;;;;;;12.96;95.26;102851.84;4955540;28;20128;-79
2022/10/03 08:40:31;;;;;;;5.40;1.52;;;;;;;12.98;93.66;102849.50;4956975;28;20054;-80
2022/10/03 08:43:33;;;;;;;8.43;2.20;;;;;;;13.01;92.26;102850.63;4956362;28;20131;-79
2022/10/03 08:46:13;;;;;;;5.30;1.80;;;;;;;13.02;91.05;102850.22;4956298;28;20133;-81
2022/10/03 08:49:00;;;;;;;3.75;1.67;;;;;;;13.09;90.46;102841.34;4956753;28;20107;-79
2022/10/03 08:51:49;;;;;;;4.50;2.15;;;;;;;13.16;91.12;102853.88;4955996;28;20052;-80
2022/10/03 08:54:44;;;;;;;5.10;1.52;;;;;;;13.21;90.62;102848.03;4956564;28;20047;-80
2022/10/03 08:57:25;;;;;;;4.50;1.48;;;;;;;13.29;90.28;102850.19;4956606;28;20134;-80
2022/10/03 09:00:07;;;;;;;6.75;1.45;;;;;;;13.35;89.83;102848.56;4956462;28;20048;-78
2022/10/03 09:02:43;;;;;;;4.40;1.45;;;;;;;13.45;90.05;102851.50;4956780;28;20506;-79
2022/10/03 09:05:15;;;;;;;2.63;1.00;;;;;;;13.57;90.14;102859.69;4956607;28;20058;-78
2022/10/03 09:07:57;;;;;;;4.70;1.35;;;;;;;13.70;90.42;102857.16;4956032;28;20082;-79
2022/10/03 09:10:34;;;;;;;;;;;;;;;13.82;90.34;102853.88;4955550;28;20861;-79
2022/10/03 09:13:22;;;;;;;6.10;1.55;;;;;;;13.88;88.43;102856.84;4956595;28;19974;-80
2022/10/03 09:16:11;;;;;;;5.80;1.40;;;;;;;14.02;89.11;102851.19;4956596;28;20098;-79
2022/10/03 09:18:55;;;;;;;4.97;1.38;;;;;;;14.09;86.17;102861.03;4955524;28;20044;-78
2022/10/03 09:21:43;;;;;;;4.40;1.33;;;;;;;14.16;86.77;102858.97;4953673;28;20131;-77
2022/10/03 09:24:45;;;;;;;8.25;1.63;;;;;;;14.20;86.59;102856.97;4956067;28;20051;-77
2022/10/03 09:27:36;;;;;;;5.57;1.40;;;;;;;14.27;84.30;102856.09;4936795;28;20127;-77
2022/10/03 09:30:21;;;;;;;2.72;1.52;;;;;;;14.36;84.88;102848.25;4936988;28;20054;-78
2022/10/03 09:33:24;;;;;;;6.72;1.50;;;;;;;14.54;84.28;102845.19;4936918;28;20174;-78
2022/10/03 09:35:59;;;;;;;;;;;;;;;14.71;84.85;102851.34;4936445;29;20527;-78
2022/10/03 09:38:54;;;;;;;3.53;1.33;;;;;;;14.80;82.68;102852.28;4936574;28;19933;-78
2022/10/03 09:41:58;;;;;;;3.78;1.50;;;;;;;14.81;81.81;102845.72;4936539;28;20556;-81
2022/10/03 09:44:49;;;;;;;4.82;1.08;;;;;;;14.91;81.96;102833.25;4936666;29;20473;-75
2022/10/03 09:47:48;;;;;;;3.45;1.40;;;;;;;14.96;81.03;102836.19;4936812;28;20055;-77
2022/10/03 09:50:35;;;;;;;3.70;1.13;;;;;;;15.16;81.62;102843.41;4895622;29;20059;-77
2022/10/03 09:53:20;;;;;;;5.88;1.40;;;;;;;15.27;79.80;102841.97;4896371;29;20053;-77
2022/10/03 09:56:14;;;;;;;3.13;1.20;;;;;;;15.27;80.34;102841.97;4896054;29;20426;-77
2022/10/03 09:58:43;;;;;;;3.67;1.30;;;;;;;15.35;80.28;102839.84;4896237;29;20214;-78
2022/10/03 10:01:16;;;;;;;4.47;1.40;;;;;;;15.46;80.45;102839.59;4895921;29;20143;-78
2022/10/03 10:03:46;;;;;;;3.00;1.90;;;;;;;15.55;79.52;102842.44;4895619;29;20056;-77
2022/10/03 10:06:33;;;;;;;4.93;1.73;;;;;;;15.63;79.17;102833.78;4896041;29;20154;-78
2022/10/03 10:09:36;;;;;;;3.85;1.30;;;;;;;15.77;78.53;102837.28;4896054;29;20057;-78
2022/10/03 10:12:36;;;;;;;9.45;1.50;;;;;;;15.95;77.54;102832.19;4895934;29;20055;-78
2022/10/03 10:15:05;;;;;;;4.63;1.13;;;;;;;15.97;74.33;102835.94;4895835;29;20117;-77
2022/10/03 10:18:09;;;;;;;4.55;1.10;;;;;;;16.07;75.71;102839.50;4895776;29;20059;-78
2022/10/03 10:21:19;;;;;;;4.63;1.30;;;;;;;16.18;75.94;102836.50;4895619;29;20057;-77
2022/10/03 10:24:02;;;;;;;4.20;1.20;;;;;;;16.24;74.52;102832.88;4895953;29;20056;-79
2022/10/03 10:26:55;;;;;;;3.72;1.35;;;;;;;16.27;74.21;102842.00;4901724;29;20068;-77
2022/10/03 10:29:42;;;;;;;17.48;2.50;;;;;;;16.35;74.51;102837.94;4935750;28;20100;-78
2022/10/03 10:32:45;;;;;;;1.73;1.25;;;;;;;16.43;73.72;102838.47;4936192;28;20134;-78
2022/10/03 10:35:45;;;;;;;6.75;1.27;;;;;;;16.39;73.05;102843.22;4936856;29;20131;-78
2022/10/03 10:38:58;;;;;;;4.93;1.23;;;;;;;16.33;73.49;102838.38;4936483;28;20139;-78
2022/10/03 10:41:34;;;;;;;3.95;1.30;;;;;;;16.45;73.62;102836.84;4902464;29;20136;-77
2022/10/03 10:44:33;;;;;;;2.70;1.00;;;;;;;16.53;72.53;102832.03;4901663;29;20080;-79
2022/10/03 10:47:39;;;;;;;6.07;1.33;;;;;;;16.53;72.70;102835.47;4886972;29;20057;-77
2022/10/03 10:50:11;;;;;;;5.70;1.50;;;;;;;16.53;71.46;102837.41;4901548;29;20689;-78
2022/10/03 10:53:08;;;;;;;5.35;1.30;;;;;;;16.47;72.95;102836.44;4901791;29;20506;-78
2022/10/03 10:56:21;;;;;;;4.93;1.23;;;;;;;16.60;72.73;102839.88;4901324;29;20053;-80
2022/10/03 10:59:13;;;;;;;3.95;1.08;;;;;;;16.61;72.50;102830.63;4901958;29;20124;-81
2022/10/03 11:01:54;;;;;;;2.45;1.13;;;;;;;16.74;72.12;102839.47;4900899;29;20603;-80
2022/10/03 11:04:29;;;;;;;3.17;1.10;;;;;;;16.83;72.55;102833.44;4901920;29;20056;-79
2022/10/03 11:07:41;;;;;;;9.80;1.75;;;;;;;16.86;73.03;102832.56;4901369;29;20053;-79
2022/10/03 11:10:47;;;;;;;4.03;1.40;;;;;;;16.85;72.75;102839.13;4901710;29;20048;-79
2022/10/03 11:13:42;;;;;;;3.95;1.30;;;;;;;16.90;72.78;102839.34;4901202;29;20053;-79
2022/10/03 11:16:45;;;;;;;4.53;3.05;;;;;;;16.98;72.36;102835.25;4946788;28;20147;-79
2022/10/03 11:19:26;;;;;;;5.65;1.40;;;;;;;16.97;70.60;102833.75;4941580;28;20528;-79
2022/10/03 11:22:22;;;;;;;3.97;1.38;;;;;;;17.02;71.20;102829.00;4941565;28;20054;-79
2022/10/03 11:24:55;;;;;;;5.82;1.50;;;;;;;17.03;71.18;102830.50;4956300;28;20135;-79
2022/10/03 11:27:40;;;;;;;2.50;1.30;;;;;;;17.11;69.92;102829.09;4941744;28;20112;-79
2022/10/03 11:30:21;;;;;;;4.68;1.55;;;;;;;17.14;68.75;102830.91;4941714;28;20082;-78
2022/10/03 11:33:25;;;;;;;5.00;1.83;;;;;;;17.20;70.05;102826.47;4941289;28;20047;-80
2022/10/03 11:36:31;;;;;;;8.82;1.60;;;;;;;17.32;69.44;102823.75;4941032;29;20140;-80
2022/10/03 11:39:07;;;;;;;3.42;1.50;;;;;;;17.46;69.83;102817.13;4941156;28;20087;-80
2022/10/03 11:41:45;;;;;;;7.28;1.50;;;;;;;17.52;69.76;102822.72;4941507;28;20572;-81
2022/10/03 11:44:18;;;;;;;5.57;1.90;;;;;;;17.53;69.14;102822.28;4941331;28;20139;-81
2022/10/03 11:46:59;;;;;;;4.90;1.88;;;;;;;17.58;69.49;102823.66;4940957;28;20040;-80
2022/10/03 11:49:44;;;;;;;5.65;1.38;;;;;;;17.61;68.72;102822.75;4941121;28;20054;-80
2022/10/03 11:52:38;;;;;;;5.78;1.50;;;;;;;17.62;67.77;102819.63;4938340;28;20127;-80
2022/10/03 11:55:28;;;;;;;9.95;1.80;;;;;;;17.75;68.85;102819.59;4938336;29;20054;-80
2022/10/03 11:58:32;;;;;;;4.90;1.73;;;;;;;17.89;68.30;102819.09;4938232;28;20064;-79
2022/10/03 12:01:25;;;;;;;5.72;1.33;;;;;;;17.88;66.82;102814.16;4934951;28;20151;-78
2022/10/03 12:04:02;;;;;;;7.05;1.38;;;;;;;17.74;66.50;102814.66;4938188;28;20131;-80
2022/10/03 12:09:36;;;;;;;6.55;1.48;;;;;;;17.80;66.07;102810.19;4952617;28;20040;-81
2022/10/03 12:12:17;;;;;;;9.23;1.80;;;;;;;17.77;67.04;102806.44;4937885;28;20489;-80
2022/10/03 12:14:51;;;;;;;7.32;1.52;;;;;;;17.77;66.87;102798.38;4937556;28;20573;-80
2022/10/03 12:17:34;;;;;;;6.18;1.80;;;;;;;17.70;68.45;102808.63;4937903;28;20048;-79
2022/10/03 12:20:17;;;;;;;4.82;2.03;;;;;;;17.75;67.49;102800.00;4938037;28;20123;-80
2022/10/03 12:22:51;;;;;;;5.50;1.92;;;;;;;17.81;66.80;102803.63;4937582;28;20604;-82
2022/10/03 12:25:29;;;;;;;5.03;1.70;;;;;;;17.83;67.34;102790.47;4937710;28;20512;-79
2022/10/03 12:28:19;;;;;;;6.22;1.70;;;;;;;17.92;68.33;102795.91;4937766;28;20048;-80
2022/10/03 12:30:54;;;;;;;5.53;1.75;;;;;;;17.83;67.32;102793.91;4937423;28;20131;-78
2022/10/03 12:33:31;;;;;;;3.60;1.67;;;;;;;17.85;68.46;102791.53;4937904;28;20087;-80
2022/10/03 12:36:14;;;;;;;4.90;1.70;;;;;;;17.85;66.44;102790.78;4937546;28;20079;-78
2022/10/03 12:38:52;;;;;;;6.05;2.75;;;;;;;17.87;67.11;102783.75;4937549;29;20059;-78
2022/10/03 12:41:44;;;;;;;9.95;3.17;;;;;;;17.93;68.67;102787.38;4937721;28;20052;-78
2022/10/03 12:44:33;;;;;;;5.47;1.50;;;;;;;17.94;67.53;102786.19;4937206;28;20048;-78
2022/10/03 12:47:25;;;;;;;5.82;1.92;;;;;;;17.92;67.42;102777.06;4932152;29;20064;-79
2022/10/03 12:50:41;;;;;;;13.98;1.95;;;;;;;17.88;66.23;102771.78;4937619;28;20048;-78
2022/10/03 12:53:14;;;;;;;6.25;1.40;;;;;;;17.85;65.98;102771.91;4936958;28;20131;-77
2022/10/03 12:55:54;;;;;;;2.92;1.23;;;;;;;17.93;65.74;102776.59;4937399;28;20054;-78
2022/10/03 12:58:32;;;;;;;3.30;1.23;;;;;;;17.95;63.42;102773.47;4936936;28;20528;-78
2022/10/03 13:01:24;;;;;;;11.60;1.92;;;;;;;17.99;65.06;102774.09;4950825;28;20127;-79
2022/10/03 13:04:06;;;;;;;7.03;1.75;;;;;;;17.99;65.55;102766.00;4937333;28;20608;-80
2022/10/03 13:06:46;;;;;;;7.63;1.77;;;;;;;18.04;65.70;102765.41;4936919;28;20393;-79
2022/10/03 13:09:52;;;;;;;8.73;2.10;;;;;;;18.04;65.09;102770.81;4937225;28;20051;-79
2022/10/03 13:12:48;;;;;;;5.60;1.70;;;;;;;18.08;65.79;102762.59;4936907;28;20126;-79
2022/10/03 13:15:36;;;;;;;5.68;1.70;;;;;;;18.01;66.40;102769.00;4937277;28;20048;-79